Time;durP1;ratioP1;P1;durP2;ratioP2;P2;SDS_P1;SDS_P2;PMS_P1;PMS_P2;Temp;Humidity;BMP_temperature;BMP_pressure;BME280_temperature;BME280_humidity;BME280_pressure;Samples;Min_cycle;Max_cycle;Signal;HPM_P1;HPM_P2
2023/03/04 00:00:58;;;;;;;12.23;4.18;;;;;;;;;;5054880;28;20052;-64
2023/03/04 00:03:27;;;;;;;12.80;4.88;;;;;;;;;;5059002;28;20055;-64
2023/03/04 00:05:56;;;;;;;15.68;5.55;;;;;;;;;;5040995;28;20099;-62
2023/03/04 00:08:24;;;;;;;6.97;3.28;;;;;;;;;;5044220;28;20134;-64
2023/03/04 00:10:52;;;;;;;4.28;3.15;;;;;;;;;;5058226;28;20060;-64
2023/03/04 00:13:21;;;;;;;10.07;4.18;;;;;;;;;;5048894;28;20041;-62
2023/03/04 00:15:49;;;;;;;12.45;4.97;;;;;;;;;;5050962;28;20417;-62
2023/03/04 00:18:17;;;;;;;13.35;6.35;;;;;;;;;;5058214;28;20367;-63
2023/03/04 00:20:48;;;;;;;15.15;5.95;;;;;;;;;;5051481;28;20041;-63
2023/03/04 00:23:16;;;;;;;9.48;4.57;;;;;;;;;;5054888;28;20088;-64
2023/03/04 00:25:45;;;;;;;7.70;3.78;;;;;;;;;;5054432;28;20505;-63
2023/03/04 00:28:13;;;;;;;4.28;3.17;;;;;;;;;;5035912;28;20057;-61
2023/03/04 00:30:42;;;;;;;12.68;4.20;;;;;;;;;;5041916;28;20452;-64
2023/03/04 00:33:10;;;;;;;7.85;4.28;;;;;;;;;;5055960;28;20512;-59
2023/03/04 00:35:39;;;;;;;17.20;4.28;;;;;;;;;;5041163;28;20053;-60
2023/03/04 00:38:09;;;;;;;22.65;5.75;;;;;;;;;;5050749;28;20239;-63
2023/03/04 00:40:37;;;;;;;3.70;2.08;;;;;;;;;;5047108;28;20050;-63
2023/03/04 00:43:06;;;;;;;12.38;4.53;;;;;;;;;;5053907;28;20045;-62
2023/03/04 00:45:34;;;;;;;10.35;4.35;;;;;;;;;;5051797;28;20048;-64
2023/03/04 00:48:03;;;;;;;6.63;4.78;;;;;;;;;;5048786;28;20055;-64
2023/03/04 00:50:31;;;;;;;7.22;3.55;;;;;;;;;;5049079;28;20037;-64
2023/03/04 00:53:00;;;;;;;11.75;4.47;;;;;;;;;;5050601;28;20041;-64
2023/03/04 00:55:30;;;;;;;11.23;3.00;;;;;;;;;;5055610;28;20053;-64
2023/03/04 00:57:58;;;;;;;5.90;4.75;;;;;;;;;;5050758;28;20053;-64
2023/03/04 01:00:26;;;;;;;20.25;5.05;;;;;;;;;;5052929;28;20489;-63
2023/03/04 01:02:55;;;;;;;10.95;4.22;;;;;;;;;;5046868;28;20418;-63
2023/03/04 01:05:23;;;;;;;8.35;4.55;;;;;;;;;;5051201;28;20068;-63
2023/03/04 01:07:51;;;;;;;14.25;3.47;;;;;;;;;;5036996;28;20048;-64
2023/03/04 01:10:19;;;;;;;12.77;4.68;;;;;;;;;;5042158;28;20048;-64
2023/03/04 01:12:49;;;;;;;7.97;3.05;;;;;;;;;;5040592;28;20746;-62
2023/03/04 01:15:17;;;;;;;6.32;2.63;;;;;;;;;;5048292;28;20496;-65
2023/03/04 01:17:46;;;;;;;7.63;4.53;;;;;;;;;;5040686;28;20493;-64
2023/03/04 01:20:14;;;;;;;11.82;3.83;;;;;;;;;;5053084;28;20139;-64
2023/03/04 01:22:43;;;;;;;4.72;2.35;;;;;;;;;;5050147;28;20045;-63
2023/03/04 01:25:11;;;;;;;11.45;5.32;;;;;;;;;;5041949;28;20050;-64
2023/03/04 01:27:40;;;;;;;19.48;3.78;;;;;;;;;;5042039;28;20056;-63
2023/03/04 01:30:11;;;;;;;8.15;4.65;;;;;;;;;;5050775;28;20045;-64
2023/03/04 01:32:39;;;;;;;11.00;5.15;;;;;;;;;;5058260;28;20044;-64
2023/03/04 01:35:08;;;;;;;8.55;5.28;;;;;;;;;;5048131;28;20068;-62
2023/03/04 01:37:37;;;;;;;6.20;3.20;;;;;;;;;;5039533;28;20390;-64
2023/03/04 01:40:05;;;;;;;10.30;4.15;;;;;;;;;;5051357;28;20417;-63
2023/03/04 01:42:34;;;;;;;7.22;3.85;;;;;;;;;;5056569;28;20060;-62
2023/03/04 01:45:03;;;;;;;8.27;3.30;;;;;;;;;;5054604;28;20099;-62
2023/03/04 01:47:34;;;;;;;11.48;3.80;;;;;;;;;;5041926;28;20053;-64
2023/03/04 01:50:04;;;;;;;8.80;3.45;;;;;;;;;;5036962;28;20120;-64
2023/03/04 01:52:32;;;;;;;8.23;4.50;;;;;;;;;;5051742;28;20046;-64
2023/03/04 01:55:00;;;;;;;11.20;5.55;;;;;;;;;;5055564;28;20455;-63
2023/03/04 01:57:29;;;;;;;4.97;3.33;;;;;;;;;;5059819;28;20059;-64
2023/03/04 02:00:18;;;;;;;6.25;3.17;;;;;;;;;;5051042;28;20072;-64
2023/03/04 02:02:49;;;;;;;7.57;4.28;;;;;;;;;;5047316;28;20128;-64
2023/03/04 02:05:18;;;;;;;2.10;1.83;;;;;;;;;;5043408;28;20056;-64
2023/03/04 02:07:46;;;;;;;7.90;2.42;;;;;;;;;;5050486;28;20418;-64
2023/03/04 02:10:14;;;;;;;9.90;3.70;;;;;;;;;;5043793;28;20421;-64
2023/03/04 02:12:43;;;;;;;12.25;4.00;;;;;;;;;;5050401;28;20081;-63
2023/03/04 02:15:11;;;;;;;16.33;4.80;;;;;;;;;;5046078;28;20535;-63
2023/03/04 02:17:40;;;;;;;7.13;5.57;;;;;;;;;;5058771;28;20057;-64
2023/03/04 02:20:16;;;;;;;8.55;3.53;;;;;;;;;;5038766;28;20111;-60
2023/03/04 02:22:48;;;;;;;8.23;3.47;;;;;;;;;;5043351;28;20099;-64
2023/03/04 02:25:19;;;;;;;9.15;3.10;;;;;;;;;;5040617;28;20504;-63
2023/03/04 02:27:49;;;;;;;8.68;3.45;;;;;;;;;;5054992;28;20041;-64
2023/03/04 02:30:18;;;;;;;7.82;3.72;;;;;;;;;;5037317;28;20486;-64
2023/03/04 02:32:47;;;;;;;12.88;3.88;;;;;;;;;;5044181;28;20054;-63
2023/03/04 02:35:16;;;;;;;10.05;5.63;;;;;;;;;;5042495;28;20049;-63
2023/03/04 02:37:45;;;;;;;6.15;3.40;;;;;;;;;;5049604;28;20080;-64
2023/03/04 02:40:15;;;;;;;6.25;3.50;;;;;;;;;;5052239;28;20635;-63
2023/03/04 02:42:45;;;;;;;7.75;2.40;;;;;;;;;;5054672;28;20720;-63
2023/03/04 02:45:36;;;;;;;8.20;2.75;;;;;;;;;;5045726;28;20095;-63
2023/03/04 02:48:05;;;;;;;3.92;2.75;;;;;;;;;;5041962;28;20045;-63
2023/03/04 02:50:35;;;;;;;8.13;3.05;;;;;;;;;;5050393;28;20055;-63
2023/03/04 02:53:04;;;;;;;12.05;4.22;;;;;;;;;;5040743;28;20387;-63
2023/03/04 02:55:33;;;;;;;5.88;3.72;;;;;;;;;;5042503;28;20227;-62
2023/03/04 02:58:02;;;;;;;8.73;4.22;;;;;;;;;;5059043;28;20059;-64
2023/03/04 03:00:30;;;;;;;5.55;3.60;;;;;;;;;;5063526;28;20134;-63
2023/03/04 03:03:00;;;;;;;7.28;3.72;;;;;;;;;;5076534;28;20048;-65
2023/03/04 03:05:30;;;;;;;6.75;2.03;;;;;;;;;;5064107;28;20564;-64
2023/03/04 03:07:59;;;;;;;8.55;2.97;;;;;;;;;;5045060;28;20083;-66
2023/03/04 03:10:27;;;;;;;7.32;3.95;;;;;;;;;;5051638;28;20044;-67
2023/03/04 03:12:55;;;;;;;12.88;3.50;;;;;;;;;;5050589;28;20052;-67
2023/03/04 03:15:24;;;;;;;5.15;2.95;;;;;;;;;;5044815;28;20045;-64
2023/03/04 03:17:53;;;;;;;2.15;1.48;;;;;;;;;;5046935;28;20392;-64
2023/03/04 03:20:23;;;;;;;5.90;3.17;;;;;;;;;;5044421;28;20041;-64
2023/03/04 03:22:51;;;;;;;5.18;3.17;;;;;;;;;;5048954;28;20071;-64
2023/03/04 03:25:20;;;;;;;4.90;3.33;;;;;;;;;;5044501;28;20498;-63
2023/03/04 03:27:48;;;;;;;4.78;2.17;;;;;;;;;;5051596;28;20044;-64
2023/03/04 03:30:17;;;;;;;6.80;3.40;;;;;;;;;;5054566;28;20049;-64
2023/03/04 03:32:46;;;;;;;12.07;4.03;;;;;;;;;;5051417;28;20051;-63
2023/03/04 03:35:14;;;;;;;7.90;3.63;;;;;;;;;;5039122;28;20051;-64
2023/03/04 03:37:44;;;;;;;7.00;2.67;;;;;;;;;;5038526;28;20037;-64
2023/03/04 03:40:13;;;;;;;3.13;1.85;;;;;;;;;;5050095;28;20057;-63
2023/03/04 03:42:41;;;;;;;3.80;1.70;;;;;;;;;;5042053;28;20045;-64
2023/03/04 03:45:09;;;;;;;7.70;5.35;;;;;;;;;;5039225;28;20044;-63
2023/03/04 03:47:38;;;;;;;9.23;3.15;;;;;;;;;;5048089;28;20127;-64
2023/03/04 03:50:07;;;;;;;9.00;3.72;;;;;;;;;;5041162;28;20053;-64
2023/03/04 03:52:35;;;;;;;7.55;3.78;;;;;;;;;;5050350;28;20057;-64
2023/03/04 03:55:05;;;;;;;6.25;3.72;;;;;;;;;;5051291;28;20052;-62
2023/03/04 03:57:33;;;;;;;4.97;2.80;;;;;;;;;;5044554;28;20053;-62
2023/03/04 04:00:02;;;;;;;3.70;2.30;;;;;;;;;;5043299;28;20041;-64
2023/03/04 04:02:30;;;;;;;8.32;3.75;;;;;;;;;;5052115;28;20064;-65
2023/03/04 04:04:58;;;;;;;6.50;3.53;;;;;;;;;;5042731;28;20095;-64
2023/03/04 04:07:27;;;;;;;15.77;5.18;;;;;;;;;;5050320;28;20045;-60
2023/03/04 04:09:55;;;;;;;7.30;4.25;;;;;;;;;;5057694;28;20053;-64
2023/03/04 04:12:24;;;;;;;2.22;1.88;;;;;;;;;;5043100;28;20065;-64
2023/03/04 04:14:53;;;;;;;1.90;1.70;;;;;;;;;;5053774;28;20390;-64
2023/03/04 04:17:21;;;;;;;4.75;2.60;;;;;;;;;;5046513;28;20048;-62
2023/03/04 04:19:49;;;;;;;6.78;3.72;;;;;;;;;;5048230;28;20053;-62
2023/03/04 04:22:19;;;;;;;2.33;1.83;;;;;;;;;;5049070;28;20410;-65
2023/03/04 04:24:47;;;;;;;5.13;1.98;;;;;;;;;;5045949;28;20061;-64
2023/03/04 04:27:16;;;;;;;11.05;1.98;;;;;;;;;;5050351;28;20049;-63
2023/03/04 04:29:45;;;;;;;9.05;2.92;;;;;;;;;;5054087;28;20431;-63
2023/03/04 04:32:13;;;;;;;2.03;1.92;;;;;;;;;;5038866;28;20045;-64
2023/03/04 04:34:42;;;;;;;6.85;2.40;;;;;;;;;;5053343;28;20055;-64
2023/03/04 04:37:10;;;;;;;7.50;3.75;;;;;;;;;;5043644;28;20050;-63
2023/03/04 04:39:38;;;;;;;4.80;2.78;;;;;;;;;;5056198;28;20049;-62
2023/03/04 04:42:07;;;;;;;2.53;2.38;;;;;;;;;;5045771;28;20044;-64
2023/03/04 04:44:37;;;;;;;6.90;3.30;;;;;;;;;;5055047;28;20045;-64
2023/03/04 04:47:07;;;;;;;3.20;2.10;;;;;;;;;;5051160;28;20090;-63
2023/03/04 04:49:35;;;;;;;5.93;2.50;;;;;;;;;;5059918;28;20504;-62
2023/03/04 04:52:04;;;;;;;2.50;2.17;;;;;;;;;;5045999;28;20052;-59
2023/03/04 04:54:32;;;;;;;2.95;2.75;;;;;;;;;;5045883;28;20057;-64
2023/03/04 04:57:00;;;;;;;2.70;1.52;;;;;;;;;;5050055;28;20048;-64
2023/03/04 04:59:28;;;;;;;2.05;1.73;;;;;;;;;;5046737;28;20485;-64
2023/03/04 05:01:57;;;;;;;6.40;3.63;;;;;;;;;;5058868;28;20040;-64
2023/03/04 05:04:26;;;;;;;4.45;3.10;;;;;;;;;;5048466;28;20055;-64
2023/03/04 05:06:54;;;;;;;6.70;2.13;;;;;;;;;;5041700;28;20416;-63
2023/03/04 05:09:23;;;;;;;5.20;3.20;;;;;;;;;;5053968;28;20048;-65
2023/03/04 05:11:52;;;;;;;9.52;2.65;;;;;;;;;;5039630;28;20049;-64
2023/03/04 05:14:20;;;;;;;3.58;2.92;;;;;;;;;;5034385;28;20045;-64
2023/03/04 05:16:51;;;;;;;13.35;4.15;;;;;;;;;;5045209;28;20040;-64
2023/03/04 05:19:20;;;;;;;2.33;1.60;;;;;;;;;;5046365;28;20139;-65
2023/03/04 05:21:50;;;;;;;2.97;1.55;;;;;;;;;;5046007;28;20440;-64
2023/03/04 05:24:19;;;;;;;5.57;2.00;;;;;;;;;;5051880;28;20080;-64
2023/03/04 05:26:48;;;;;;;5.80;2.55;;;;;;;;;;5044341;28;20047;-63
2023/03/04 05:29:16;;;;;;;4.30;2.92;;;;;;;;;;5058966;28;20057;-63
2023/03/04 05:31:44;;;;;;;5.85;1.75;;;;;;;;;;5043419;28;20054;-62
2023/03/04 05:34:13;;;;;;;4.03;3.42;;;;;;;;;;5037108;28;20442;-64
2023/03/04 05:36:41;;;;;;;6.10;4.03;;;;;;;;;;5040284;28;20059;-64
2023/03/04 05:39:11;;;;;;;9.38;3.15;;;;;;;;;;5037358;28;20041;-62
2023/03/04 05:41:39;;;;;;;4.63;2.95;;;;;;;;;;5046194;28;20049;-63
2023/03/04 05:44:07;;;;;;;3.10;1.67;;;;;;;;;;5050751;28;20052;-64
2023/03/04 05:46:36;;;;;;;3.65;2.17;;;;;;;;;;5046268;28;20045;-64
2023/03/04 05:49:04;;;;;;;1.63;1.52;;;;;;;;;;5047689;28;20053;-63
2023/03/04 05:51:32;;;;;;;4.93;2.40;;;;;;;;;;5053283;28;20067;-64
2023/03/04 05:54:01;;;;;;;9.45;2.85;;;;;;;;;;5043237;28;20049;-62
2023/03/04 05:56:32;;;;;;;5.35;2.35;;;;;;;;;;5046287;28;20061;-65
2023/03/04 05:59:00;;;;;;;7.00;3.90;;;;;;;;;;5043574;28;20053;-64
2023/03/04 06:01:30;;;;;;;7.43;1.60;;;;;;;;;;5054608;28;20048;-64
2023/03/04 06:03:58;;;;;;;10.95;2.20;;;;;;;;;;5041759;28;20474;-64
2023/03/04 06:06:26;;;;;;;2.40;2.15;;;;;;;;;;5047074;28;20079;-63
2023/03/04 06:08:55;;;;;;;3.42;1.70;;;;;;;;;;5050899;28;20044;-64
2023/03/04 06:11:23;;;;;;;4.35;1.02;;;;;;;;;;5043950;28;20047;-59
2023/03/04 06:13:52;;;;;;;3.03;2.38;;;;;;;;;;5045340;28;20084;-64
2023/03/04 06:16:21;;;;;;;11.63;2.85;;;;;;;;;;5046929;28;20103;-63
2023/03/04 06:18:49;;;;;;;2.50;2.10;;;;;;;;;;5041575;28;20045;-64
2023/03/04 06:21:17;;;;;;;1.73;1.63;;;;;;;;;;5038453;28;20135;-59
2023/03/04 06:23:46;;;;;;;7.32;2.33;;;;;;;;;;5038122;28;20056;-63
2023/03/04 06:26:14;;;;;;;4.45;2.95;;;;;;;;;;5049978;28;20042;-63
2023/03/04 06:28:43;;;;;;;3.30;1.95;;;;;;;;;;5045796;28;20045;-65
2023/03/04 06:31:13;;;;;;;7.57;2.42;;;;;;;;;;5048434;28;20040;-63
2023/03/04 06:33:41;;;;;;;2.75;2.55;;;;;;;;;;5048694;28;20045;-64
2023/03/04 06:36:09;;;;;;;4.53;1.58;;;;;;;;;;5049831;28;20068;-62
2023/03/04 06:38:38;;;;;;;0.90;0.90;;;;;;;;;;5043964;28;20064;-64
2023/03/04 06:41:07;;;;;;;3.42;1.77;;;;;;;;;;5043270;28;20040;-64
2023/03/04 06:43:36;;;;;;;4.22;2.60;;;;;;;;;;5048990;28;20063;-64
2023/03/04 06:46:04;;;;;;;4.50;2.40;;;;;;;;;;5040198;28;20049;-64
2023/03/04 06:48:34;;;;;;;3.97;2.30;;;;;;;;;;5049876;28;20052;-64
2023/03/04 06:51:05;;;;;;;7.80;2.67;;;;;;;;;;5049186;28;20128;-64
2023/03/04 06:53:34;;;;;;;0.93;0.90;;;;;;;;;;5054567;28;20073;-66
2023/03/04 06:56:02;;;;;;;5.63;2.85;;;;;;;;;;5047478;28;20414;-63
2023/03/04 06:58:30;;;;;;;6.47;1.98;;;;;;;;;;5048954;28;20520;-68
2023/03/04 07:00:59;;;;;;;1.58;1.40;;;;;;;;;;5051395;28;20520;-63
2023/03/04 07:03:27;;;;;;;8.20;2.50;;;;;;;;;;5046508;28;20049;-67
2023/03/04 07:05:57;;;;;;;7.82;1.90;;;;;;;;;;5050553;28;20049;-65
2023/03/04 07:08:25;;;;;;;2.13;1.95;;;;;;;;;;5045242;28;20052;-64
2023/03/04 07:10:53;;;;;;;5.68;2.38;;;;;;;;;;5050518;28;20507;-63
2023/03/04 07:13:22;;;;;;;9.48;3.20;;;;;;;;;;5042442;28;20478;-62
2023/03/04 07:15:50;;;;;;;7.55;3.92;;;;;;;;;;5027780;28;20057;-64
2023/03/04 07:18:18;;;;;;;10.10;3.20;;;;;;;;;;5039464;28;20060;-64
2023/03/04 07:20:47;;;;;;;14.43;4.07;;;;;;;;;;5046509;28;20131;-64
2023/03/04 07:23:16;;;;;;;2.60;1.48;;;;;;;;;;5028545;28;20048;-63
2023/03/04 07:25:45;;;;;;;3.45;2.70;;;;;;;;;;5039832;28;20060;-63
2023/03/04 07:28:13;;;;;;;11.95;3.67;;;;;;;;;;5034455;28;20057;-64
2023/03/04 07:30:41;;;;;;;3.80;2.88;;;;;;;;;;5040971;28;20512;-64
2023/03/04 07:33:09;;;;;;;5.18;2.80;;;;;;;;;;5035951;28;20054;-64
2023/03/04 07:35:38;;;;;;;7.07;3.42;;;;;;;;;;5036146;28;20075;-64
2023/03/04 07:38:06;;;;;;;8.50;2.67;;;;;;;;;;5038552;28;20049;-63
2023/03/04 07:40:36;;;;;;;20.85;4.13;;;;;;;;;;5037436;28;20054;-63
2023/03/04 07:43:04;;;;;;;6.35;2.05;;;;;;;;;;5041621;28;20194;-64
2023/03/04 07:45:33;;;;;;;6.13;2.65;;;;;;;;;;5035409;28;20402;-60
2023/03/04 07:48:01;;;;;;;7.38;3.05;;;;;;;;;;5043762;28;20046;-62
2023/03/04 07:50:29;;;;;;;10.80;4.93;;;;;;;;;;5044131;28;20052;-64
2023/03/04 07:52:57;;;;;;;5.53;4.70;;;;;;;;;;5041479;28;20090;-59
2023/03/04 07:55:26;;;;;;;7.57;4.75;;;;;;;;;;5044776;28;20049;-63
2023/03/04 07:57:56;;;;;;;6.72;4.38;;;;;;;;;;5054410;28;20409;-64
2023/03/04 08:00:24;;;;;;;6.78;2.55;;;;;;;;;;5035247;28;20406;-61
2023/03/04 08:02:52;;;;;;;7.47;5.25;;;;;;;;;;5044760;28;20056;-63
2023/03/04 08:05:21;;;;;;;8.70;4.15;;;;;;;;;;5034444;28;20495;-64
2023/03/04 08:07:49;;;;;;;18.77;4.40;;;;;;;;;;5045479;28;20052;-63
2023/03/04 08:10:17;;;;;;;8.18;3.38;;;;;;;;;;5035315;28;20056;-64
2023/03/04 08:12:46;;;;;;;4.10;3.30;;;;;;;;;;5033601;28;20057;-60
2023/03/04 08:15:15;;;;;;;7.38;3.72;;;;;;;;;;5045232;28;20061;-63
2023/03/04 08:17:44;;;;;;;4.72;3.63;;;;;;;;;;5047003;28;20053;-62
2023/03/04 08:20:13;;;;;;;6.90;4.63;;;;;;;;;;5039116;28;20064;-63
2023/03/04 08:22:41;;;;;;;11.65;5.20;;;;;;;;;;5043734;28;20045;-64
2023/03/04 08:25:09;;;;;;;8.05;4.68;;;;;;;;;;5037871;28;20046;-61
2023/03/04 08:27:38;;;;;;;14.40;4.07;;;;;;;;;;5043947;28;20814;-63
2023/03/04 08:30:07;;;;;;;6.57;3.13;;;;;;;;;;5043405;28;20049;-63
2023/03/04 08:32:36;;;;;;;6.40;4.45;;;;;;;;;;5051402;28;20060;-63
2023/03/04 08:35:05;;;;;;;4.93;3.80;;;;;;;;;;5041445;28;20046;-62
2023/03/04 08:37:33;;;;;;;12.32;4.88;;;;;;;;;;5049823;28;20056;-62
2023/03/04 08:40:01;;;;;;;8.23;3.53;;;;;;;;;;5041551;28;20094;-63
2023/03/04 08:42:30;;;;;;;10.02;5.38;;;;;;;;;;5043084;28;20056;-64
2023/03/04 08:44:58;;;;;;;15.82;4.72;;;;;;;;;;5042903;28;20049;-62
2023/03/04 08:47:26;;;;;;;9.77;4.03;;;;;;;;;;5040968;28;20513;-64
2023/03/04 08:49:57;;;;;;;8.40;4.90;;;;;;;;;;5044581;28;20049;-65
2023/03/04 08:52:25;;;;;;;18.38;6.10;;;;;;;;;;5042597;28;20072;-63
2023/03/04 08:54:53;;;;;;;4.55;3.17;;;;;;;;;;5053394;28;20056;-63
2023/03/04 08:57:22;;;;;;;11.93;4.60;;;;;;;;;;5050235;28;20497;-65
2023/03/04 08:59:50;;;;;;;14.35;3.85;;;;;;;;;;5048246;28;20056;-65
2023/03/04 09:02:18;;;;;;;11.77;5.28;;;;;;;;;;5042873;28;20053;-62
2023/03/04 09:04:47;;;;;;;7.18;4.30;;;;;;;;;;5041760;28;20081;-65
2023/03/04 09:07:16;;;;;;;11.55;4.28;;;;;;;;;;5052409;28;20374;-66
2023/03/04 09:09:45;;;;;;;18.45;5.60;;;;;;;;;;5052526;28;20062;-64
2023/03/04 09:12:13;;;;;;;13.70;6.45;;;;;;;;;;5044929;28;20493;-63
2023/03/04 09:14:41;;;;;;;21.45;5.80;;;;;;;;;;5051512;28;20063;-65
2023/03/04 09:17:09;;;;;;;9.90;5.60;;;;;;;;;;5042533;28;20057;-64
2023/03/04 09:19:38;;;;;;;18.10;7.18;;;;;;;;;;5043564;28;20088;-64
2023/03/04 09:22:06;;;;;;;8.32;3.50;;;;;;;;;;5041669;28;20056;-64
2023/03/04 09:24:36;;;;;;;12.93;6.05;;;;;;;;;;5048720;28;20053;-64
2023/03/04 09:27:04;;;;;;;13.23;6.22;;;;;;;;;;5039667;28;20049;-64
2023/03/04 09:29:32;;;;;;;12.52;5.60;;;;;;;;;;5046281;28;20041;-63
2023/03/04 09:32:01;;;;;;;10.13;4.53;;;;;;;;;;5051980;28;20051;-66
2023/03/04 09:34:29;;;;;;;10.60;5.57;;;;;;;;;;5049438;28;20144;-65
2023/03/04 09:36:57;;;;;;;15.20;5.78;;;;;;;;;;5034493;28;20148;-66
2023/03/04 09:39:26;;;;;;;18.23;4.15;;;;;;;;;;5045665;28;20072;-64
2023/03/04 09:41:57;;;;;;;14.98;4.07;;;;;;;;;;5047546;28;20049;-65
2023/03/04 09:44:28;;;;;;;15.73;5.97;;;;;;;;;;5047846;28;20052;-62
2023/03/04 09:46:59;;;;;;;11.90;3.58;;;;;;;;;;5043458;28;20049;-67
2023/03/04 09:49:28;;;;;;;10.52;3.90;;;;;;;;;;5052194;28;20400;-65
2023/03/04 09:51:59;;;;;;;15.93;5.72;;;;;;;;;;5055670;28;20045;-68
2023/03/04 09:54:32;;;;;;;9.60;6.13;;;;;;;;;;5046680;28;20054;-68
2023/03/04 09:57:07;;;;;;;9.07;4.28;;;;;;;;;;5041888;28;20410;-64
2023/03/04 09:59:40;;;;;;;12.48;6.00;;;;;;;;;;5051573;28;20510;-63
2023/03/04 10:02:16;;;;;;;12.82;6.15;;;;;;;;;;5038138;28;20050;-66
2023/03/04 10:04:48;;;;;;;16.27;6.22;;;;;;;;;;5035949;28;20053;-66
2023/03/04 10:07:18;;;;;;;11.48;6.18;;;;;;;;;;5049586;28;20060;-67
2023/03/04 10:09:48;;;;;;;14.35;5.72;;;;;;;;;;5048952;28;20059;-66
2023/03/04 10:12:20;;;;;;;13.50;5.15;;;;;;;;;;5047977;28;20405;-65
2023/03/04 10:14:50;;;;;;;14.77;5.25;;;;;;;;;;5048514;28;20053;-67
2023/03/04 10:17:20;;;;;;;25.73;6.43;;;;;;;;;;5047828;28;20986;-65
2023/03/04 10:19:58;;;;;;;18.98;5.25;;;;;;;;;;5044314;28;20127;-66
2023/03/04 10:22:30;;;;;;;26.88;6.70;;;;;;;;;;5043249;28;20059;-66
2023/03/04 10:24:59;;;;;;;17.33;5.25;;;;;;;;;;5039359;28;20162;-67
2023/03/04 10:27:30;;;;;;;13.85;5.47;;;;;;;;;;5041162;28;20397;-66
2023/03/04 10:30:00;;;;;;;14.75;5.47;;;;;;;;;;5058153;28;20051;-65
2023/03/04 10:32:28;;;;;;;6.90;4.05;;;;;;;;;;5048082;28;20049;-67
2023/03/04 10:34:56;;;;;;;12.73;5.18;;;;;;;;;;5046795;28;20110;-67
2023/03/04 10:37:25;;;;;;;13.73;4.47;;;;;;;;;;5048022;28;20061;-66
2023/03/04 10:39:53;;;;;;;11.50;4.50;;;;;;;;;;5035243;28;20439;-64
2023/03/04 10:42:28;;;;;;;12.80;4.10;;;;;;;;;;5038280;28;20186;-65
2023/03/04 10:44:59;;;;;;;11.45;4.85;;;;;;;;;;5043831;28;20044;-66
2023/03/04 10:47:30;;;;;;;8.60;4.47;;;;;;;;;;5036584;28;20167;-67
2023/03/04 10:49:59;;;;;;;17.63;5.25;;;;;;;;;;5046699;28;20044;-65
2023/03/04 10:52:30;;;;;;;7.05;3.58;;;;;;;;;;5041706;28;20088;-67
2023/03/04 10:54:59;;;;;;;14.70;4.13;;;;;;;;;;5048548;28;20056;-67
2023/03/04 10:57:31;;;;;;;10.32;4.32;;;;;;;;;;5047368;28;20490;-67
2023/03/04 11:00:01;;;;;;;7.15;4.47;;;;;;;;;;5046616;28;20049;-68
2023/03/04 11:02:30;;;;;;;11.75;5.50;;;;;;;;;;5047138;28;20048;-69
2023/03/04 11:05:17;;;;;;;11.00;4.40;;;;;;;;;;5043327;28;20152;-68
2023/03/04 11:07:46;;;;;;;16.80;4.88;;;;;;;;;;5048193;28;20452;-68
2023/03/04 11:10:25;;;;;;;15.52;4.88;;;;;;;;;;5042602;28;20131;-68
2023/03/04 11:12:56;;;;;;;16.90;6.07;;;;;;;;;;5040152;28;20049;-68
2023/03/04 11:15:27;;;;;;;17.88;6.45;;;;;;;;;;5042810;28;20128;-67
2023/03/04 11:17:56;;;;;;;13.80;4.57;;;;;;;;;;5046698;28;20060;-68
2023/03/04 11:20:31;;;;;;;14.73;4.55;;;;;;;;;;5044085;28;20057;-69
2023/03/04 11:23:02;;;;;;;14.55;6.35;;;;;;;;;;5037671;28;20045;-68
2023/03/04 11:25:33;;;;;;;9.30;4.03;;;;;;;;;;5043732;28;20083;-69
2023/03/04 11:28:02;;;;;;;12.10;5.05;;;;;;;;;;5036724;28;20427;-68
2023/03/04 11:30:38;;;;;;;10.50;5.00;;;;;;;;;;5048872;28;20041;-69
2023/03/04 11:33:13;;;;;;;16.42;4.63;;;;;;;;;;5047864;28;20062;-69
2023/03/04 11:35:45;;;;;;;10.32;3.40;;;;;;;;;;5038622;28;20050;-69
2023/03/04 11:38:17;;;;;;;19.13;5.25;;;;;;;;;;5045174;28;21253;-69
2023/03/04 11:40:47;;;;;;;11.52;5.07;;;;;;;;;;5047082;28;20053;-69
2023/03/04 11:43:18;;;;;;;14.77;4.80;;;;;;;;;;5051327;28;20474;-69
2023/03/04 11:46:01;;;;;;;10.07;3.72;;;;;;;;;;5050360;28;20049;-69
2023/03/04 11:48:37;;;;;;;9.18;4.30;;;;;;;;;;5044579;28;20049;-69
2023/03/04 11:51:09;;;;;;;12.00;3.97;;;;;;;;;;5053179;28;20052;-69
2023/03/04 11:53:48;;;;;;;10.13;5.45;;;;;;;;;;5047027;28;20044;-70
2023/03/04 11:56:19;;;;;;;14.77;4.68;;;;;;;;;;5049817;28;20042;-70
2023/03/04 11:59:05;;;;;;;19.17;5.85;;;;;;;;;;5068623;28;20056;-70
2023/03/04 12:01:37;;;;;;;5.88;3.65;;;;;;;;;;5060750;28;20527;-69
2023/03/04 12:04:13;;;;;;;8.77;3.42;;;;;;;;;;5071323;28;20053;-69
2023/03/04 12:06:50;;;;;;;16.10;5.75;;;;;;;;;;5068056;28;20077;-70
2023/03/04 12:09:26;;;;;;;11.65;4.35;;;;;;;;;;5053603;28;20048;-69
2023/03/04 12:12:01;;;;;;;15.70;4.50;;;;;;;;;;5052568;28;20100;-69
2023/03/04 12:14:32;;;;;;;11.05;4.57;;;;;;;;;;5050386;28;20049;-70
2023/03/04 12:17:10;;;;;;;6.53;3.25;;;;;;;;;;5038739;28;20053;-69
2023/03/04 12:19:47;;;;;;;8.73;3.97;;;;;;;;;;5050225;28;20051;-70
2023/03/04 12:22:22;;;;;;;13.27;4.95;;;;;;;;;;5054374;28;20040;-70
2023/03/04 12:25:10;;;;;;;12.07;3.40;;;;;;;;;;5047400;28;20528;-69
2023/03/04 12:27:44;;;;;;;13.80;3.78;;;;;;;;;;5047274;28;20054;-68
2023/03/04 12:30:17;;;;;;;6.70;3.53;;;;;;;;;;5048850;28;20047;-69
2023/03/04 12:32:51;;;;;;;22.30;4.65;;;;;;;;;;5049352;28;20049;-68
2023/03/04 12:35:36;;;;;;;8.27;2.75;;;;;;;;;;5051393;28;20401;-68
2023/03/04 12:38:15;;;;;;;9.82;3.67;;;;;;;;;;5042368;28;20095;-69
2023/03/04 12:40:48;;;;;;;8.68;4.13;;;;;;;;;;5050653;28;20083;-69
2023/03/04 12:43:24;;;;;;;8.90;3.60;;;;;;;;;;5051025;28;20049;-68
2023/03/04 12:45:58;;;;;;;6.72;2.72;;;;;;;;;;5046565;28;20524;-67
2023/03/04 12:48:30;;;;;;;7.93;3.53;;;;;;;;;;5050156;28;20057;-67
2023/03/04 12:51:08;;;;;;;14.35;3.85;;;;;;;;;;5052901;28;20051;-67
2023/03/04 12:53:42;;;;;;;10.68;4.10;;;;;;;;;;5046330;28;20045;-67
2023/03/04 12:56:18;;;;;;;6.38;2.30;;;;;;;;;;5052278;28;20504;-67
2023/03/04 12:58:46;;;;;;;10.57;3.20;;;;;;;;;;5052913;28;20087;-67
2023/03/04 13:01:17;;;;;;;6.63;2.67;;;;;;;;;;5045127;28;20087;-62
2023/03/04 13:03:48;;;;;;;10.20;4.10;;;;;;;;;;5056024;28;20045;-66
2023/03/04 13:06:25;;;;;;;12.55;5.00;;;;;;;;;;5041856;28;20480;-64
2023/03/04 13:08:59;;;;;;;10.48;3.53;;;;;;;;;;5089163;28;20076;-64
2023/03/04 13:11:51;;;;;;;6.33;2.73;;;;;;;;;;5058369;28;20049;-64
2023/03/04 13:14:24;;;;;;;8.30;2.50;;;;;;;;;;5062630;28;20079;-66
2023/03/04 13:16:53;;;;;;;5.00;2.78;;;;;;;;;;5064690;28;20041;-65
2023/03/04 13:19:40;;;;;;;8.73;2.80;;;;;;;;;;5045054;28;20045;-64
2023/03/04 13:22:23;;;;;;;9.90;3.78;;;;;;;;;;5051243;28;20053;-65
2023/03/04 13:24:53;;;;;;;8.30;4.05;;;;;;;;;;5047950;28;20080;-64
2023/03/04 13:27:40;;;;;;;9.43;2.72;;;;;;;;;;5041018;28;20557;-63
2023/03/04 13:30:36;;;;;;;10.70;3.90;;;;;;;;;;5058032;28;20545;-64
2023/03/04 13:33:20;;;;;;;8.10;3.30;;;;;;;;;;5053299;28;20551;-66
2023/03/04 13:35:48;;;;;;;11.13;4.45;;;;;;;;;;5046838;28;20049;-67
2023/03/04 13:38:21;;;;;;;11.27;4.22;;;;;;;;;;5045670;28;20048;-67
2023/03/04 13:41:05;;;;;;;11.93;4.50;;;;;;;;;;5045741;28;20056;-67
2023/03/04 13:43:39;;;;;;;12.43;3.65;;;;;;;;;;5046144;28;20379;-67
2023/03/04 13:46:22;;;;;;;9.70;3.50;;;;;;;;;;5051102;28;20076;-67
2023/03/04 13:49:00;;;;;;;11.00;3.58;;;;;;;;;;5080571;28;20053;-68
2023/03/04 13:51:31;;;;;;;10.63;2.63;;;;;;;;;;5065448;28;20044;-67
2023/03/04 13:54:07;;;;;;;9.40;3.58;;;;;;;;;;5061144;28;20048;-67
2023/03/04 13:56:36;;;;;;;6.38;2.50;;;;;;;;;;5066679;28;20044;-67
2023/03/04 13:59:15;;;;;;;7.45;3.13;;;;;;;;;;5043753;28;20098;-68
2023/03/04 14:01:54;;;;;;;12.68;3.38;;;;;;;;;;5041568;28;20409;-67
2023/03/04 14:04:23;;;;;;;13.25;3.85;;;;;;;;;;5051417;28;20053;-67
2023/03/04 14:06:52;;;;;;;7.70;3.08;;;;;;;;;;5053146;28;20049;-67
2023/03/04 14:09:22;;;;;;;8.63;2.85;;;;;;;;;;5046718;28;20453;-67
2023/03/04 14:11:51;;;;;;;8.57;2.65;;;;;;;;;;5040516;28;20053;-67
2023/03/04 14:14:21;;;;;;;13.23;3.35;;;;;;;;;;5048124;28;20045;-68
2023/03/04 14:16:51;;;;;;;8.65;3.10;;;;;;;;;;5044164;28;20131;-67
2023/03/04 14:19:23;;;;;;;8.18;2.80;;;;;;;;;;5039685;28;20542;-67
2023/03/04 14:21:52;;;;;;;13.20;3.35;;;;;;;;;;5038285;28;20053;-68
2023/03/04 14:24:21;;;;;;;11.45;3.22;;;;;;;;;;5047785;28;20045;-67
2023/03/04 14:26:49;;;;;;;9.25;3.08;;;;;;;;;;5039045;28;20045;-67
2023/03/04 14:29:24;;;;;;;14.18;3.58;;;;;;;;;;5049506;28;20048;-66
2023/03/04 14:31:52;;;;;;;11.35;3.95;;;;;;;;;;5051329;28;20409;-68
2023/03/04 14:34:30;;;;;;;7.78;3.95;;;;;;;;;;5050060;28;20527;-68
2023/03/04 14:36:59;;;;;;;8.20;2.75;;;;;;;;;;5044725;28;20049;-68
2023/03/04 14:39:29;;;;;;;6.72;2.38;;;;;;;;;;5040475;28;20050;-67
2023/03/04 14:42:00;;;;;;;16.92;4.13;;;;;;;;;;5042349;28;20152;-68
2023/03/04 14:44:34;;;;;;;10.50;2.58;;;;;;;;;;5050835;28;20061;-68
2023/03/04 14:47:07;;;;;;;6.95;2.45;;;;;;;;;;5047796;28;20065;-68
2023/03/04 14:49:37;;;;;;;6.55;2.72;;;;;;;;;;5037978;28;20118;-67
2023/03/04 14:52:05;;;;;;;9.02;2.45;;;;;;;;;;5045589;28;20045;-67
2023/03/04 14:54:35;;;;;;;6.90;3.55;;;;;;;;;;5044506;28;20048;-67
2023/03/04 14:57:22;;;;;;;10.45;2.70;;;;;;;;;;5042459;28;20051;-67